Time;durP1;ratioP1;P1;durP2;ratioP2;P2;SDS_P1;SDS_P2;PMS_P1;PMS_P2;Temp;Humidity;BMP_temperature;BMP_pressure;BME280_temperature;BME280_humidity;BME280_pressure;Samples;Min_cycle;Max_cycle;Signal;HPM_P1;HPM_P2
2022/02/12 00:00:58;;;;;;;10.23;8.13;;;;;;;2.70;78.47;100391.77;1673714;85;21079;-63
2022/02/12 00:03:25;;;;;;;7.92;6.90;;;;;;;2.59;78.54;100387.94;1671783;85;20970;-63
2022/02/12 00:05:51;;;;;;;8.77;7.43;;;;;;;2.50;78.65;100396.14;1679317;85;21463;-63
2022/02/12 00:08:17;;;;;;;10.90;6.92;;;;;;;2.38;78.82;100396.74;1675051;85;21073;-63
2022/02/12 00:10:44;;;;;;;8.03;6.75;;;;;;;2.24;79.35;100391.84;1686875;85;21118;-63
2022/02/12 00:13:11;;;;;;;9.05;7.30;;;;;;;2.05;80.08;100396.54;1671711;84;21053;-63
2022/02/12 00:15:40;;;;;;;7.70;6.70;;;;;;;1.86;80.73;100398.59;1686451;83;21018;-62
2022/02/12 00:18:06;;;;;;;8.80;7.13;;;;;;;1.69;81.37;100392.97;1677054;85;21045;-63
2022/02/12 00:20:33;;;;;;;8.18;5.90;;;;;;;1.62;81.89;100389.67;1669003;85;21098;-62
2022/02/12 00:23:00;;;;;;;8.33;6.57;;;;;;;1.54;82.65;100392.95;1678466;84;21045;-64
2022/02/12 00:25:26;;;;;;;7.07;6.13;;;;;;;1.47;83.08;100393.95;1692971;85;21053;-62
2022/02/12 00:27:53;;;;;;;10.80;7.53;;;;;;;1.40;83.65;100388.86;1688375;85;21123;-63
2022/02/12 00:30:20;;;;;;;;;;;;;;;1.31;84.20;100392.25;1679350;85;21105;-64
2022/02/12 00:32:46;;;;;;;10.50;8.00;;;;;;;1.23;84.70;100394.19;1673877;85;20116;-64
2022/02/12 00:35:12;;;;;;;9.70;7.58;;;;;;;1.16;85.28;100385.97;1683394;82;21109;-62
2022/02/12 00:37:39;;;;;;;10.80;8.10;;;;;;;1.23;85.40;100381.06;1685384;85;21047;-63
2022/02/12 00:40:07;;;;;;;9.23;8.20;;;;;;;1.29;85.39;100367.91;1685474;84;21458;-63
2022/02/12 00:42:33;;;;;;;9.17;8.20;;;;;;;1.34;85.40;100363.94;1672519;85;21100;-62
2022/02/12 00:45:00;;;;;;;10.45;8.20;;;;;;;1.35;85.58;100349.83;1668846;85;21035;-64
2022/02/12 00:47:28;;;;;;;;;;;;;;;1.31;85.88;100354.16;1671467;85;21031;-64
2022/02/12 00:49:54;;;;;;;;;;;;;;;1.28;86.12;100359.20;1685443;85;20424;-63
2022/02/12 00:52:20;;;;;;;12.20;9.23;;;;;;;1.18;86.32;100343.84;1682113;85;20175;-64
2022/02/12 00:54:46;;;;;;;10.30;8.78;;;;;;;1.19;86.36;100346.84;1685047;85;21061;-63
2022/02/12 00:57:12;;;;;;;9.53;8.40;;;;;;;1.26;86.34;100331.38;1677013;83;21001;-63
2022/02/12 00:59:39;;;;;;;9.58;8.58;;;;;;;1.28;86.33;100330.31;1676801;84;21046;-62
2022/02/12 01:02:05;;;;;;;11.10;8.60;;;;;;;1.30;86.28;100324.45;1680978;84;21132;-62
2022/02/12 01:04:31;;;;;;;10.35;9.25;;;;;;;1.31;86.47;100319.53;1684370;83;21620;-64
2022/02/12 01:06:58;;;;;;;12.43;9.03;;;;;;;1.27;86.77;100312.06;1677085;85;21602;-62
2022/02/12 01:09:24;;;;;;;11.23;9.07;;;;;;;1.20;86.91;100308.28;1684843;84;21057;-62
2022/02/12 01:11:51;;;;;;;8.50;6.95;;;;;;;1.19;86.95;100304.83;1674703;84;21077;-65
2022/02/12 01:14:17;;;;;;;8.48;7.33;;;;;;;1.26;86.95;100312.55;1679898;85;21523;-63
2022/02/12 01:16:43;;;;;;;9.93;7.87;;;;;;;1.32;86.94;100310.71;1688872;85;21022;-63
2022/02/12 01:19:10;;;;;;;6.80;6.10;;;;;;;1.32;86.92;100297.58;1683781;85;21164;-62
2022/02/12 01:21:36;;;;;;;7.87;7.08;;;;;;;1.28;87.11;100298.80;1685977;85;21381;-63
2022/02/12 01:24:02;;;;;;;7.85;7.05;;;;;;;1.24;87.34;100298.69;1676285;85;20998;-62
2022/02/12 01:26:28;;;;;;;7.28;6.08;;;;;;;1.24;87.46;100313.62;1672516;85;21491;-62
2022/02/12 01:28:54;;;;;;;5.65;5.17;;;;;;;1.29;87.23;100312.27;1682732;84;21022;-63
2022/02/12 01:31:21;;;;;;;5.15;4.72;;;;;;;1.33;87.22;100313.67;1675254;85;21008;-63
2022/02/12 01:33:48;;;;;;;;;;;;;;;1.38;87.09;100308.54;1665499;85;21049;-63
2022/02/12 01:36:14;;;;;;;5.57;5.07;;;;;;;1.36;87.19;100308.17;1653688;85;20162;-62
2022/02/12 01:38:41;;;;;;;5.72;5.22;;;;;;;1.27;87.59;100308.12;1684403;85;21176;-62
2022/02/12 01:41:07;;;;;;;4.67;4.28;;;;;;;1.23;87.62;100315.91;1683830;85;21549;-63
2022/02/12 01:43:33;;;;;;;6.00;5.50;;;;;;;1.23;87.67;100316.73;1682748;85;20948;-62
2022/02/12 01:45:59;;;;;;;5.65;5.10;;;;;;;1.29;87.51;100318.02;1672703;84;21076;-63
2022/02/12 01:48:25;;;;;;;5.55;5.05;;;;;;;1.34;87.49;100313.21;1681869;85;21026;-62
2022/02/12 01:50:52;;;;;;;;;;;;;;;1.38;87.38;100313.79;1676430;85;21061;-64
2022/02/12 01:53:21;;;;;;;6.33;5.47;;;;;;;1.41;87.46;100317.45;1682525;85;20210;-63
2022/02/12 01:55:49;;;;;;;5.70;4.87;;;;;;;1.32;87.80;100315.14;1676388;84;20954;-63
2022/02/12 01:58:16;;;;;;;5.23;4.83;;;;;;;1.29;87.91;100310.13;1667756;85;21655;-63
2022/02/12 02:00:43;;;;;;;4.73;4.33;;;;;;;1.29;87.89;100309.64;1681856;84;21007;-63
2022/02/12 02:03:09;;;;;;;5.25;4.78;;;;;;;1.34;87.64;100308.78;1680842;85;21474;-63
2022/02/12 02:05:38;;;;;;;5.80;5.30;;;;;;;1.38;87.61;100307.22;1679740;85;21570;-63
2022/02/12 02:08:05;;;;;;;6.42;5.83;;;;;;;1.38;87.61;100317.23;1677465;85;20971;-62
2022/02/12 02:10:33;;;;;;;6.10;5.50;;;;;;;1.34;87.77;100321.91;1670280;85;21053;-63
2022/02/12 02:12:59;;;;;;;7.10;6.53;;;;;;;1.31;88.13;100326.59;1689496;84;21087;-63
2022/02/12 02:15:25;;;;;;;6.83;5.92;;;;;;;1.31;88.17;100326.59;1676402;84;21037;-62
2022/02/12 02:17:52;;;;;;;6.40;5.58;;;;;;;1.39;88.17;100318.89;1680850;85;21066;-61
2022/02/12 02:20:18;;;;;;;11.35;10.25;;;;;;;1.41;87.90;100318.77;1691747;85;20991;-62
2022/02/12 02:22:54;;;;;;;14.10;11.90;;;;;;;1.42;88.08;100314.70;1678011;84;21018;-62
2022/02/12 02:25:22;;;;;;;12.43;11.10;;;;;;;1.49;88.24;100324.22;1669046;85;21104;-62
2022/02/12 02:27:49;;;;;;;12.93;11.73;;;;;;;1.56;88.33;100326.66;1667850;85;21015;-62
2022/02/12 02:30:19;;;;;;;11.47;10.27;;;;;;;1.59;88.11;100338.23;1671081;85;21008;-63
2022/02/12 02:32:46;;;;;;;10.30;9.40;;;;;;;1.59;88.22;100335.60;1683690;85;21086;-63
2022/02/12 02:35:18;;;;;;;11.77;10.33;;;;;;;1.58;88.27;100344.43;1673292;84;21064;-63
2022/02/12 02:37:44;;;;;;;10.70;9.73;;;;;;;1.55;88.32;100340.77;1681540;85;20990;-63
2022/02/12 02:40:17;;;;;;;9.53;8.73;;;;;;;1.54;88.39;100343.89;1672891;85;21025;-63
2022/02/12 02:42:47;;;;;;;9.00;8.10;;;;;;;1.56;88.41;100347.67;1671772;85;21070;-64
2022/02/12 02:45:14;;;;;;;7.23;6.53;;;;;;;1.55;88.57;100348.16;1671749;82;21057;-64
2022/02/12 02:49:11;;;;;;;5.77;5.23;;;;;;;1.51;88.44;100344.13;1789940;78;22286;-62
2022/02/12 02:57:09;;;;;;;4.43;4.13;;;;;;;1.19;89.53;100361.28;1718680;81;21029;-63
2022/02/12 02:59:35;;;;;;;4.08;3.87;;;;;;;1.14;89.97;100367.38;1722658;81;21057;-63
2022/02/12 03:02:02;;;;;;;4.45;4.12;;;;;;;1.13;90.08;100370.95;1696293;83;21021;-63
2022/02/12 03:04:28;;;;;;;3.17;2.97;;;;;;;1.15;90.31;100376.94;1688378;84;21082;-62
2022/02/12 03:06:55;;;;;;;3.50;3.30;;;;;;;1.18;90.35;100379.28;1693547;84;21051;-62
2022/02/12 03:09:21;;;;;;;2.17;2.07;;;;;;;1.17;90.21;100389.45;1670251;84;21028;-63
2022/02/12 03:11:49;;;;;;;1.80;1.70;;;;;;;1.14;90.16;100402.83;1668066;85;21051;-63
2022/02/12 03:14:15;;;;;;;2.40;2.30;;;;;;;1.14;90.40;100408.08;1670712;85;21075;-64
2022/02/12 03:16:41;;;;;;;3.00;2.80;;;;;;;1.18;90.60;100417.36;1672123;85;21088;-62
2022/02/12 03:19:07;;;;;;;4.37;3.87;;;;;;;1.24;90.69;100422.10;1642982;85;21061;-63
2022/02/12 03:21:33;;;;;;;3.10;2.90;;;;;;;1.27;90.54;100425.80;1649257;85;21501;-63
2022/02/12 03:24:00;;;;;;;2.72;2.52;;;;;;;1.29;90.57;100430.93;1659865;84;21128;-63
2022/02/12 03:26:26;;;;;;;1.80;1.70;;;;;;;1.31;90.55;100433.77;1646818;85;21078;-62
2022/02/12 03:28:52;;;;;;;1.40;1.30;;;;;;;1.34;90.45;100443.22;1658440;85;21071;-63
2022/02/12 03:31:18;;;;;;;1.07;1.05;;;;;;;1.34;89.99;100450.61;1661483;85;21185;-63
2022/02/12 03:33:45;;;;;;;0.72;0.72;;;;;;;1.32;90.00;100459.09;1655469;85;21481;-63
2022/02/12 03:36:11;;;;;;;;;;;;;;;1.29;89.93;100458.51;1658527;86;21125;-63
2022/02/12 03:38:39;;;;;;;0.67;0.40;;;;;;;1.24;90.05;100458.86;1655583;86;20182;-63
2022/02/12 03:41:07;;;;;;;0.40;0.33;;;;;;;1.19;90.29;100458.42;1654291;86;21571;-63
2022/02/12 03:43:37;;;;;;;0.60;0.20;;;;;;;1.19;90.54;100461.05;1656157;86;21031;-63
2022/02/12 03:46:05;;;;;;;0.47;0.47;;;;;;;1.23;90.60;100466.89;1652662;86;21072;-63
2022/02/12 03:48:32;;;;;;;1.43;0.33;;;;;;;1.24;90.58;100480.36;1647888;86;21641;-62
2022/02/12 03:50:58;;;;;;;0.60;0.40;;;;;;;1.23;90.70;100478.70;1638329;87;21000;-64
2022/02/12 03:53:24;;;;;;;1.55;0.40;;;;;;;1.25;90.79;100484.18;1631808;86;21624;-64
2022/02/12 03:55:51;;;;;;;;;;;;;;;1.27;90.64;100494.08;1653730;86;20998;-63
2022/02/12 03:58:19;;;;;;;0.40;0.40;;;;;;;1.25;90.62;100505.67;1632619;86;20412;-62
2022/02/12 04:00:48;;;;;;;0.50;0.50;;;;;;;1.20;90.87;100513.91;1641669;86;21085;-63
2022/02/12 04:03:15;;;;;;;1.40;0.60;;;;;;;1.19;90.94;100512.71;1711976;81;21037;-63
2022/02/12 04:05:44;;;;;;;0.60;0.60;;;;;;;1.23;91.02;100530.73;1726670;81;21081;-64
2022/02/12 04:08:13;;;;;;;0.70;0.50;;;;;;;1.25;90.95;100537.19;1725541;81;22226;-63
2022/02/12 04:10:40;;;;;;;3.57;1.70;;;;;;;1.23;90.60;100539.93;1721438;82;21022;-63
2022/02/12 04:13:06;;;;;;;1.00;1.00;;;;;;;1.24;90.72;100546.01;1724470;81;21104;-62
2022/02/12 04:15:33;;;;;;;1.57;0.93;;;;;;;1.23;90.77;100553.55;1723454;81;21561;-63
2022/02/12 04:18:00;;;;;;;4.12;1.07;;;;;;;1.24;90.81;100560.45;1732841;81;21018;-63
2022/02/12 04:20:26;;;;;;;0.40;0.40;;;;;;;1.22;90.66;100558.43;1726212;81;21112;-62
2022/02/12 04:22:52;;;;;;;0.30;0.30;;;;;;;1.17;90.34;100566.69;1725765;81;21057;-64
2022/02/12 04:25:22;;;;;;;1.25;1.05;;;;;;;0.86;90.22;100520.53;1719309;81;21032;-64
2022/02/12 04:27:50;;;;;;;0.60;0.60;;;;;;;1.12;90.39;100579.34;1722414;81;21072;-63
2022/02/12 04:30:16;;;;;;;0.83;0.70;;;;;;;1.11;90.74;100596.89;1723321;81;21046;-63
2022/02/12 04:32:44;;;;;;;1.60;1.30;;;;;;;1.15;90.89;100590.92;1739819;81;21439;-62
2022/02/12 04:35:16;;;;;;;1.23;0.90;;;;;;;1.19;90.82;100598.05;1724174;81;21021;-64
2022/02/12 04:37:43;;;;;;;0.70;0.70;;;;;;;1.20;90.63;100605.81;1689106;84;21046;-63
2022/02/12 04:40:12;;;;;;;0.60;0.60;;;;;;;1.16;90.46;100608.33;1673591;85;21029;-62
2022/02/12 04:42:39;;;;;;;1.33;0.70;;;;;;;1.10;90.54;100610.95;1723108;81;21101;-63
2022/02/12 04:45:07;;;;;;;0.53;0.53;;;;;;;1.06;90.82;100613.47;1720676;82;21019;-64
2022/02/12 04:47:40;;;;;;;1.43;1.33;;;;;;;1.04;91.09;100619.32;1701301;84;21055;-64
2022/02/12 04:50:08;;;;;;;2.87;2.60;;;;;;;1.08;91.16;100623.86;1704743;84;21042;-64
2022/02/12 04:52:34;;;;;;;2.13;1.77;;;;;;;1.08;91.13;100636.98;1701113;84;21105;-63
2022/02/12 04:55:00;;;;;;;1.67;1.57;;;;;;;1.11;91.38;100638.03;1712806;84;22232;-64
2022/02/12 04:57:27;;;;;;;2.02;1.90;;;;;;;1.14;91.43;100645.20;1691363;83;21006;-62
2022/02/12 04:59:53;;;;;;;1.22;1.15;;;;;;;1.22;91.46;100655.10;1697165;83;21092;-62
2022/02/12 05:02:19;;;;;;;1.65;1.50;;;;;;;1.27;91.47;100659.52;1655947;84;21190;-62
2022/02/12 05:04:45;;;;;;;1.57;1.47;;;;;;;1.30;91.41;100669.80;1677482;85;21056;-63
2022/02/12 05:07:11;;;;;;;1.55;1.45;;;;;;;1.33;91.27;100673.97;1671538;84;21605;-63
2022/02/12 05:09:38;;;;;;;0.72;0.70;;;;;;;1.31;90.92;100683.27;1666588;85;21874;-63
2022/02/12 05:12:07;;;;;;;0.75;0.68;;;;;;;1.30;90.79;100683.39;1671711;83;21059;-62
2022/02/12 05:14:34;;;;;;;1.47;1.43;;;;;;;1.24;90.39;100687.33;1692852;83;21049;-63
2022/02/12 05:17:03;;;;;;;1.77;1.67;;;;;;;1.21;90.52;100698.09;1699170;83;21041;-62
2022/02/12 05:19:29;;;;;;;1.30;1.20;;;;;;;1.21;90.83;100694.15;1693060;83;21022;-62
2022/02/12 05:21:55;;;;;;;1.05;0.93;;;;;;;1.22;90.73;100707.63;1698416;83;21019;-62
2022/02/12 05:24:22;;;;;;;1.52;1.42;;;;;;;1.16;90.51;100706.30;1759932;81;21560;-63
2022/02/12 05:26:48;;;;;;;1.25;1.25;;;;;;;1.11;90.76;100712.86;1761407;81;21019;-62
2022/02/12 05:29:16;;;;;;;1.40;0.83;;;;;;;1.11;91.12;100725.53;1741366;81;20979;-62
2022/02/12 05:31:42;;;;;;;1.00;1.00;;;;;;;1.12;91.23;100725.05;1739241;81;21049;-63
2022/02/12 05:34:08;;;;;;;0.80;0.72;;;;;;;1.09;91.01;100730.53;1718659;81;21061;-63
2022/02/12 05:36:34;;;;;;;1.90;1.47;;;;;;;1.04;91.08;100737.94;1678715;83;21094;-62
2022/02/12 05:39:02;;;;;;;0.95;0.72;;;;;;;1.01;91.35;100742.92;1697435;83;21070;-63
2022/02/12 05:41:28;;;;;;;0.50;0.50;;;;;;;1.03;91.64;100751.52;1679432;83;21023;-62
2022/02/12 05:43:54;;;;;;;1.17;0.53;;;;;;;1.04;91.68;100760.25;1685847;83;21130;-63
2022/02/12 05:46:21;;;;;;;1.55;0.65;;;;;;;1.03;91.45;100765.13;1663891;84;21042;-63
2022/02/12 05:48:47;;;;;;;1.05;1.02;;;;;;;0.95;91.51;100767.02;1658368;84;21046;-61
2022/02/12 05:51:18;;;;;;;1.17;0.93;;;;;;;0.95;91.81;100774.90;1601588;88;21063;-63
2022/02/12 05:53:45;;;;;;;0.73;0.70;;;;;;;1.00;92.17;100778.02;1665728;84;21066;-63
2022/02/12 05:56:11;;;;;;;1.12;0.85;;;;;;;1.06;92.11;100788.05;1670178;84;21027;-62
2022/02/12 05:58:38;;;;;;;1.07;0.80;;;;;;;1.07;92.12;100788.39;1672404;84;21031;-62
2022/02/12 06:01:04;;;;;;;1.37;1.27;;;;;;;1.05;91.86;100796.04;1684487;82;21117;-62
2022/02/12 06:03:30;;;;;;;2.67;1.35;;;;;;;1.03;92.03;100794.83;1703305;81;21162;-62
2022/02/12 06:05:56;;;;;;;0.88;0.88;;;;;;;1.07;92.39;100794.95;1710690;82;21150;-62
2022/02/12 06:08:23;;;;;;;1.00;0.95;;;;;;;1.13;92.63;100799.77;1719720;82;21038;-65
2022/02/12 06:10:53;;;;;;;1.40;1.30;;;;;;;1.22;92.66;100809.20;1717692;83;20967;-68
2022/02/12 06:13:19;;;;;;;1.07;1.07;;;;;;;1.28;92.63;100818.78;1695361;83;21551;-65
2022/02/12 06:15:46;;;;;;;0.73;0.73;;;;;;;1.35;92.65;100818.66;1681865;83;21037;-75
2022/02/12 06:18:13;;;;;;;0.85;0.85;;;;;;;1.41;92.70;100824.41;1683034;83;21064;-69
2022/02/12 06:20:39;;;;;;;0.93;0.80;;;;;;;1.50;92.69;100830.27;1623239;86;21546;-68
2022/02/12 06:23:05;;;;;;;3.17;1.37;;;;;;;1.58;92.61;100834.93;1630508;86;21072;-65
2022/02/12 06:25:31;;;;;;;1.42;1.25;;;;;;;1.64;92.33;100839.70;1677008;83;21051;-64
2022/02/12 06:28:00;;;;;;;1.80;1.45;;;;;;;1.68;92.13;100845.94;1671435;84;21047;-65
2022/02/12 06:30:26;;;;;;;2.03;1.93;;;;;;;1.73;91.86;100849.06;1686117;83;21098;-65
2022/02/12 06:32:53;;;;;;;2.10;1.37;;;;;;;1.78;91.68;100853.12;1688548;83;21038;-64
2022/02/12 06:35:20;;;;;;;1.90;1.65;;;;;;;1.84;91.88;100854.78;1682962;84;21014;-67
2022/02/12 06:37:46;;;;;;;2.03;1.83;;;;;;;1.90;91.04;100857.41;1674752;84;21064;-68
2022/02/12 06:40:13;;;;;;;2.08;1.98;;;;;;;1.85;90.54;100866.16;1683222;84;21036;-65
2022/02/12 06:42:39;;;;;;;3.23;1.53;;;;;;;1.83;90.38;100869.34;1691034;84;21083;-67
2022/02/12 06:45:08;;;;;;;2.75;1.77;;;;;;;1.87;90.70;100876.07;1676576;84;21120;-67
2022/02/12 06:47:37;;;;;;;1.83;1.73;;;;;;;1.88;90.24;100883.81;1658005;84;21079;-66
2022/02/12 06:50:05;;;;;;;1.30;1.20;;;;;;;1.87;90.09;100883.47;1669262;84;21605;-67
2022/02/12 06:52:31;;;;;;;1.97;1.80;;;;;;;1.89;90.05;100889.44;1659367;84;21028;-64
2022/02/12 06:54:57;;;;;;;1.67;1.57;;;;;;;1.91;90.01;100893.27;1662918;84;21048;-67
2022/02/12 06:57:24;;;;;;;1.82;1.72;;;;;;;1.92;89.81;100901.50;1687199;83;21084;-67
2022/02/12 06:59:50;;;;;;;2.50;1.47;;;;;;;1.92;89.81;100901.50;1686072;83;21064;-66
2022/02/12 07:02:18;;;;;;;1.50;0.82;;;;;;;1.92;89.74;100901.50;1665129;85;21066;-66
2022/02/12 07:04:45;;;;;;;1.53;1.20;;;;;;;1.93;89.74;100909.77;1671922;84;21184;-65
2022/02/12 07:07:13;;;;;;;1.93;1.40;;;;;;;1.95;89.73;100913.11;1664592;85;21114;-66
2022/02/12 07:09:40;;;;;;;2.40;1.03;;;;;;;1.97;89.56;100915.14;1655903;84;21097;-66
2022/02/12 07:12:08;;;;;;;1.37;1.22;;;;;;;1.97;89.45;100914.31;1659891;85;20990;-67
2022/02/12 07:14:36;;;;;;;1.73;1.57;;;;;;;1.98;89.69;100920.77;1646086;84;21042;-67
2022/02/12 07:17:03;;;;;;;1.00;1.00;;;;;;;1.97;89.08;100927.45;1658152;85;21555;-68
2022/02/12 07:19:30;;;;;;;2.57;1.37;;;;;;;1.93;88.83;100930.80;1665082;84;21054;-67
2022/02/12 07:21:56;;;;;;;1.02;0.93;;;;;;;1.92;89.11;100936.99;1666098;84;20979;-68
2022/02/12 07:24:22;;;;;;;1.85;0.75;;;;;;;1.96;89.45;100939.77;1689318;83;21092;-66
2022/02/12 07:26:50;;;;;;;1.43;1.33;;;;;;;2.04;89.55;100949.70;1686849;84;21020;-65
2022/02/12 07:29:15;;;;;;;1.87;0.95;;;;;;;2.12;89.70;100956.02;1689303;83;21529;-68
2022/02/12 07:31:41;;;;;;;2.15;0.90;;;;;;;2.21;89.47;100953.17;1693894;83;21002;-67
2022/02/12 07:34:14;;;;;;;0.60;0.60;;;;;;;2.28;89.29;100958.78;1681492;83;21101;-66
2022/02/12 07:36:36;;;;;;;0.90;0.90;;;;;;;2.36;89.38;100960.84;1658722;85;21051;-66
2022/02/12 07:39:02;;;;;;;0.98;0.40;;;;;;;2.48;89.37;100973.02;1658282;85;21010;-67
2022/02/12 07:41:34;;;;;;;2.42;1.55;;;;;;;2.52;88.12;100981.02;1651281;85;21082;-65
2022/02/12 07:43:56;;;;;;;0.90;0.90;;;;;;;2.53;88.22;100987.98;1625452;85;21070;-66
2022/02/12 07:46:23;;;;;;;3.30;1.40;;;;;;;2.61;88.43;100989.52;1654903;85;21022;-72
2022/02/12 07:48:49;;;;;;;1.95;1.85;;;;;;;2.66;87.53;100995.75;1651698;86;21099;-73
2022/02/12 07:51:16;;;;;;;7.30;6.67;;;;;;;2.64;87.29;100999.81;1656911;85;21048;-70
2022/02/12 07:53:42;;;;;;;;;;;;;;;2.61;87.24;100996.09;1650078;86;21091;-70
2022/02/12 07:56:08;;;;;;;1.77;1.67;;;;;;;2.61;87.15;101011.06;1656523;86;20444;-71
2022/02/12 07:58:37;;;;;;;2.30;1.47;;;;;;;2.58;87.45;101012.15;1659251;86;21523;-69
2022/02/12 08:01:03;;;;;;;2.93;2.00;;;;;;;2.61;87.24;101021.59;1639013;85;21500;-71
2022/02/12 08:03:31;;;;;;;3.43;1.90;;;;;;;2.62;86.63;101010.95;1645303;85;21047;-81
2022/02/12 08:05:57;;;;;;;2.08;1.90;;;;;;;2.61;86.61;101013.20;1638085;86;21021;-78
2022/02/12 08:08:23;;;;;;;2.90;2.67;;;;;;;2.63;86.78;101024.94;1643787;87;21123;-78
2022/02/12 08:13:35;;;;;;;2.90;2.23;;;;;;;2.67;86.49;101029.83;1632811;86;21087;-82
2022/02/12 08:16:01;;;;;;;4.05;2.27;;;;;;;2.68;86.23;101035.47;1687856;83;20995;-80
2022/02/12 08:18:27;;;;;;;;;;;;;;;2.67;85.84;101043.48;1697780;83;21050;-82
2022/02/12 08:20:53;;;;;;;4.60;2.97;;;;;;;2.65;85.99;101046.71;1678695;83;20135;-76
2022/02/12 08:23:19;;;;;;;4.35;3.83;;;;;;;2.59;85.79;101049.83;1692343;83;21032;-77
2022/02/12 08:25:46;;;;;;;8.18;6.92;;;;;;;2.55;85.82;101053.66;1681967;83;21106;-76
2022/02/12 08:28:12;;;;;;;4.55;3.77;;;;;;;2.57;86.29;101051.74;1658536;85;21027;-76
2022/02/12 08:30:38;;;;;;;3.90;3.60;;;;;;;2.63;86.41;101059.98;1638746;86;21030;-76
2022/02/12 08:33:06;;;;;;;4.10;3.27;;;;;;;2.68;86.40;101067.55;1688430;83;21014;-77
2022/02/12 08:35:32;;;;;;;6.15;3.85;;;;;;;2.73;86.11;101068.00;1685564;83;21068;-75
2022/02/12 08:37:58;;;;;;;4.05;2.95;;;;;;;2.72;85.61;101071.12;1690187;84;21021;-75
2022/02/12 08:40:24;;;;;;;3.52;3.33;;;;;;;2.77;85.62;101077.36;1686728;84;21121;-75
2022/02/12 08:42:52;;;;;;;4.50;3.40;;;;;;;2.83;85.79;101086.58;1682510;83;21101;-75
2022/02/12 08:45:19;;;;;;;5.37;4.37;;;;;;;2.87;85.43;101088.83;1656826;85;21115;-75
2022/02/12 08:47:45;;;;;;;3.58;3.27;;;;;;;2.92;85.56;101094.59;1635197;86;21111;-76
2022/02/12 08:50:11;;;;;;;4.03;3.10;;;;;;;2.98;84.88;101098.53;1638988;86;21401;-76
2022/02/12 08:52:40;;;;;;;3.80;3.47;;;;;;;2.99;84.40;101098.88;1634076;85;21046;-77
2022/02/12 08:55:08;;;;;;;4.03;3.57;;;;;;;2.97;84.02;101108.70;1674515;85;21036;-74
2022/02/12 08:57:35;;;;;;;3.77;3.40;;;;;;;2.89;83.18;101113.25;1675851;85;21525;-70
2022/02/12 09:00:04;;;;;;;3.67;2.80;;;;;;;2.85;83.38;101126.30;1660749;85;21015;-66
2022/02/12 09:02:30;;;;;;;3.90;3.50;;;;;;;2.81;83.64;101124.03;1675340;85;21053;-75
2022/02/12 09:04:57;;;;;;;4.78;3.40;;;;;;;2.83;83.74;101131.34;1634738;86;21711;-73
2022/02/12 09:07:23;;;;;;;4.12;2.70;;;;;;;2.85;83.65;101130.25;1690082;83;21606;-68
2022/02/12 09:09:50;;;;;;;5.45;3.33;;;;;;;2.84;83.82;101127.24;1692193;83;21281;-73
2022/02/12 09:12:17;;;;;;;4.45;3.72;;;;;;;2.86;83.72;101143.79;1693596;83;21063;-72
2022/02/12 09:14:43;;;;;;;4.87;3.85;;;;;;;2.87;82.86;101148.08;1692245;83;21003;-69
2022/02/12 09:17:09;;;;;;;10.35;4.33;;;;;;;2.90;82.95;101153.58;1682083;83;21056;-67
2022/02/12 09:19:35;;;;;;;5.17;3.77;;;;;;;2.90;81.88;101161.02;1702630;83;21688;-71
2022/02/12 09:22:02;;;;;;;8.50;4.97;;;;;;;2.90;82.20;101169.37;1694453;83;21011;-83
2022/02/12 09:24:28;;;;;;;5.83;4.77;;;;;;;2.90;82.04;101162.34;1690157;83;21528;-66
2022/02/12 09:26:54;;;;;;;7.40;4.42;;;;;;;2.89;81.99;101167.23;1688029;83;21007;-67
2022/02/12 09:29:20;;;;;;;7.72;4.08;;;;;;;2.89;82.58;101172.50;1690471;83;20988;-67
2022/02/12 09:31:47;;;;;;;6.08;4.83;;;;;;;2.93;82.03;101183.64;1693129;83;20999;-66
2022/02/12 09:34:13;;;;;;;9.48;5.22;;;;;;;2.98;82.53;101186.77;1691973;83;21017;-68
2022/02/12 09:36:40;;;;;;;7.00;4.72;;;;;;;3.05;82.79;101192.38;1686611;84;21833;-66
2022/02/12 09:39:08;;;;;;;5.73;3.80;;;;;;;3.11;82.41;101195.88;1688340;84;21057;-68
2022/02/12 09:41:34;;;;;;;8.23;4.70;;;;;;;3.17;82.21;101195.40;1693430;84;21031;-67
2022/02/12 09:44:01;;;;;;;6.67;4.23;;;;;;;3.20;81.63;101203.08;1692563;84;21062;-67
2022/02/12 09:46:34;;;;;;;;;;;;;;;3.21;80.87;101202.10;1686251;84;21566;-65
2022/02/12 09:49:03;;;;;;;8.83;4.33;;;;;;;3.21;81.17;101199.95;1688900;84;20127;-65
2022/02/12 09:51:32;;;;;;;6.77;3.47;;;;;;;3.17;81.55;101196.72;1693546;84;21486;-66
2022/02/12 09:53:59;;;;;;;6.57;3.73;;;;;;;3.17;81.23;101205.94;1687445;84;21070;-65
2022/02/12 09:56:26;;;;;;;6.70;3.83;;;;;;;3.15;81.01;101213.13;1680920;83;21094;-68
2022/02/12 09:58:52;;;;;;;7.47;5.30;;;;;;;3.12;81.32;101212.03;1687066;84;21190;-68
2022/02/12 10:01:19;;;;;;;9.65;5.62;;;;;;;3.10;81.48;101221.36;1692907;83;21602;-66
2022/02/12 10:03:47;;;;;;;7.90;3.73;;;;;;;3.08;81.22;101226.40;1715728;82;21422;-65
2022/02/12 10:06:14;;;;;;;7.10;4.03;;;;;;;3.05;81.97;101224.85;1719206;82;21038;-64
2022/02/12 10:08:41;;;;;;;7.40;3.42;;;;;;;3.07;82.12;101232.16;1713986;82;21050;-65
2022/02/12 10:11:17;;;;;;;6.03;2.80;;;;;;;3.13;81.96;101233.48;1703316;82;21554;-65
2022/02/12 10:13:44;;;;;;;;;;;;;;;3.14;81.27;101240.41;1722417;82;21069;-67
2022/02/12 10:16:10;;;;;;;3.77;2.60;;;;;;;3.14;80.66;101238.27;1716205;82;20501;-67
2022/02/12 10:18:41;;;;;;;6.95;4.03;;;;;;;3.09;81.13;101235.51;1709961;82;21107;-67
2022/02/12 10:21:09;;;;;;;4.37;2.27;;;;;;;3.10;81.62;101238.97;1708172;82;21055;-65
2022/02/12 10:23:40;;;;;;;2.80;2.20;;;;;;;3.12;81.65;101251.06;1707185;82;21065;-66
2022/02/12 10:26:13;;;;;;;3.43;2.77;;;;;;;3.11;81.10;101250.72;1719657;82;21505;-67
2022/02/12 10:28:45;;;;;;;6.57;2.93;;;;;;;3.11;80.77;101252.52;1716292;82;20987;-66
2022/02/12 10:31:13;;;;;;;6.47;2.80;;;;;;;3.11;80.61;101267.01;1714853;81;21006;-65
2022/02/12 10:33:45;;;;;;;3.87;2.67;;;;;;;3.08;80.59;101269.38;1718812;81;20984;-64
2022/02/12 10:36:17;;;;;;;4.50;3.00;;;;;;;3.10;81.17;101273.22;1711616;82;21049;-66
2022/02/12 10:38:54;;;;;;;7.17;3.13;;;;;;;3.12;80.14;101266.03;1709606;82;21617;-66
2022/02/12 10:41:22;;;;;;;1.80;1.70;;;;;;;3.15;80.50;101269.77;1710254;82;21093;-64
2022/02/12 10:43:54;;;;;;;5.97;2.73;;;;;;;3.16;78.27;101281.96;1712519;82;21030;-65
2022/02/12 10:46:22;;;;;;;5.70;2.20;;;;;;;3.15;78.80;101288.70;1723121;82;21034;-65
2022/02/12 10:48:50;;;;;;;5.67;1.63;;;;;;;3.17;79.46;101295.52;1714658;82;21530;-65
2022/02/12 10:51:17;;;;;;;1.93;1.70;;;;;;;3.21;79.40;101293.00;1720138;82;21050;-66
2022/02/12 10:54:06;;;;;;;4.37;1.57;;;;;;;3.28;79.22;101281.53;1719324;82;20963;-66
2022/02/12 10:56:54;;;;;;;4.67;2.23;;;;;;;3.35;77.83;101296.38;1691770;83;21010;-64
2022/02/12 10:59:24;;;;;;;3.87;1.70;;;;;;;3.37;76.88;101303.68;1718857;82;21033;-65
2022/02/12 11:01:52;;;;;;;3.47;1.97;;;;;;;3.38;76.76;101300.10;1694548;83;21045;-67
2022/02/12 11:04:20;;;;;;;4.33;2.20;;;;;;;3.38;76.71;101304.89;1655401;83;21058;-65
2022/02/12 11:06:48;;;;;;;4.00;1.70;;;;;;;3.39;75.96;101307.90;1680691;83;20978;-67
2022/02/12 11:09:16;;;;;;;5.70;1.77;;;;;;;3.40;75.91;101312.19;1696862;83;21198;-66
2022/02/12 11:11:42;;;;;;;2.33;1.37;;;;;;;3.43;76.40;101320.36;1657573;85;21039;-64
2022/02/12 11:14:09;;;;;;;;;;;;;;;3.43;75.64;101324.31;1702273;84;21019;-64
2022/02/12 11:16:36;;;;;;;2.00;1.90;;;;;;;3.46;75.12;101315.66;1698405;84;20153;-65
2022/02/12 11:19:04;;;;;;;6.63;1.17;;;;;;;3.47;74.70;101320.48;1696844;84;21058;-66
2022/02/12 11:21:33;;;;;;;2.83;1.67;;;;;;;3.52;74.19;101328.85;1697940;84;21412;-65
2022/02/12 11:24:03;;;;;;;3.47;1.00;;;;;;;3.54;74.63;101321.66;1684721;83;21542;-64
2022/02/12 11:26:47;;;;;;;3.67;1.07;;;;;;;3.58;74.64;101324.45;1696500;84;21122;-66
2022/02/12 11:29:34;;;;;;;4.23;0.90;;;;;;;3.60;74.52;101330.89;1703215;84;21558;-64
2022/02/12 11:32:10;;;;;;;3.42;2.08;;;;;;;3.58;73.55;101333.67;1657111;85;21114;-65
2022/02/12 11:34:43;;;;;;;2.40;1.20;;;;;;;3.18;73.91;101272.14;1625813;85;21029;-64
2022/02/12 11:37:17;;;;;;;10.27;2.30;;;;;;;3.61;73.73;101343.97;1694410;83;21019;-64
2022/02/12 11:40:12;;;;;;;4.37;2.47;;;;;;;3.64;73.63;101341.11;1692411;84;21054;-66
2022/02/12 11:42:54;;;;;;;4.87;1.97;;;;;;;3.64;73.91;101335.83;1689037;83;21039;-66
2022/02/12 11:45:34;;;;;;;8.40;3.07;;;;;;;3.62;74.67;101341.70;1692963;83;21054;-64
2022/02/12 11:48:28;;;;;;;3.97;2.07;;;;;;;3.64;74.74;101338.95;1697692;83;21033;-64